createdAt,value
2018-01-19T00:00:25.776Z,82.8
2018-01-19T00:01:26.434Z,82.6
2018-01-19T00:02:27.092Z,82.7
2018-01-19T00:03:27.749Z,83.0
2018-01-19T00:04:28.408Z,82.8
2018-01-19T00:05:29.066Z,83.5
2018-01-19T00:06:29.723Z,82.9
2018-01-19T00:07:30.382Z,82.8
2018-01-19T00:08:31.038Z,83.2
2018-01-19T00:09:31.696Z,82.9
2018-01-19T00:10:32.353Z,83.2
2018-01-19T00:11:33.011Z,82.8
2018-01-19T00:12:33.670Z,83.6
2018-01-19T00:13:34.326Z,83.7
2018-01-19T00:14:34.984Z,82.9
2018-01-19T00:15:35.646Z,83.6
2018-01-19T00:16:36.301Z,84.1
2018-01-19T00:17:36.959Z,84.1
2018-01-19T00:18:37.618Z,83.9
2018-01-19T00:19:38.275Z,83.8
2018-01-19T00:20:38.934Z,84.0
2018-01-19T00:21:39.592Z,84.1
2018-01-19T00:22:40.249Z,84.8
2018-01-19T00:23:40.909Z,84.6
2018-01-19T00:24:41.567Z,84.9
2018-01-19T00:25:42.226Z,84.6
2018-01-19T00:26:42.883Z,84.9
2018-01-19T00:27:43.546Z,84.7
2018-01-19T00:28:44.200Z,84.8
2018-01-19T00:29:44.859Z,84.8
2018-01-19T00:30:45.518Z,84.8
2018-01-19T00:31:46.176Z,84.8
2018-01-19T00:32:46.834Z,84.7
2018-01-19T00:33:47.495Z,84.7
2018-01-19T00:34:48.152Z,84.6
2018-01-19T00:35:48.860Z,84.8
2018-01-19T00:36:49.518Z,84.8
2018-01-19T00:37:50.175Z,84.2
2018-01-19T00:38:50.832Z,84.5
2018-01-19T00:39:51.490Z,84.8
2018-01-19T00:40:52.149Z,84.6
2018-01-19T00:41:52.808Z,84.2
2018-01-19T00:43:39.363Z,84.2
2018-01-19T00:44:40.022Z,84.2
2018-01-19T00:45:40.716Z,84.3
2018-01-19T00:46:41.373Z,84.8
2018-01-19T00:47:42.032Z,84.7
2018-01-19T00:48:42.690Z,84.8
2018-01-19T00:49:43.352Z,84.7
2018-01-19T00:50:44.008Z,84.7
2018-01-19T00:51:44.666Z,84.1
2018-01-19T00:52:45.325Z,84.6
2018-01-19T00:53:45.983Z,84.6
2018-01-19T00:54:46.641Z,84.8
2018-01-19T00:55:47.300Z,84.8
2018-01-19T00:56:47.959Z,85.0
2018-01-19T00:57:48.618Z,84.6
2018-01-19T00:58:49.277Z,84.7
2018-01-19T00:59:49.934Z,84.6
2018-01-19T01:00:50.592Z,85.0
2018-01-19T01:01:51.251Z,85.0
2018-01-19T01:02:51.910Z,85.4
2018-01-19T01:03:52.568Z,85.0
2018-01-19T01:04:53.226Z,85.3
2018-01-19T01:05:53.885Z,85.9
2018-01-19T01:06:54.543Z,85.6
2018-01-19T01:07:55.199Z,85.4
2018-01-19T01:08:55.856Z,85.4
2018-01-19T01:09:56.513Z,85.1
2018-01-19T01:10:57.171Z,85.0
2018-01-19T01:11:57.829Z,84.7
2018-01-19T01:12:58.487Z,85.3
2018-01-19T01:13:59.145Z,85.0
2018-01-19T01:14:59.804Z,84.8
2018-01-19T01:16:00.462Z,84.8
2018-01-19T01:17:01.121Z,85.0
2018-01-19T01:18:01.779Z,85.5
2018-01-19T01:19:02.438Z,85.1
2018-01-19T01:20:03.097Z,84.7
2018-01-19T01:21:03.757Z,84.3
2018-01-19T01:22:04.415Z,84.5
2018-01-19T01:23:05.074Z,84.2
2018-01-19T01:24:05.732Z,84.2
2018-01-19T01:25:06.392Z,84.2
2018-01-19T01:26:07.049Z,83.7
2018-01-19T01:27:07.707Z,84.0
2018-01-19T01:28:08.372Z,84.3
2018-01-19T01:29:09.024Z,84.2
2018-01-19T01:30:09.683Z,83.8
2018-01-19T01:31:10.342Z,83.9
2018-01-19T01:32:11.000Z,83.7
2018-01-19T01:33:11.660Z,83.8
2018-01-19T01:34:12.317Z,82.9
2018-01-19T01:35:12.976Z,83.5
2018-01-19T01:36:13.637Z,83.4
2018-01-19T01:37:14.295Z,83.2
2018-01-19T01:38:14.952Z,83.3
2018-01-19T01:39:15.610Z,82.7
2018-01-19T01:40:16.275Z,83.2
2018-01-19T01:41:16.929Z,83.0
2018-01-19T01:42:17.588Z,83.1
2018-01-19T01:43:18.247Z,83.2
2018-01-19T01:44:18.906Z,83.1
2018-01-19T01:45:19.564Z,82.8
2018-01-19T01:46:20.222Z,83.0
2018-01-19T01:47:20.882Z,82.9
2018-01-19T01:48:21.541Z,82.8
2018-01-19T01:49:22.199Z,82.8
2018-01-19T01:50:22.858Z,82.3
2018-01-19T01:51:23.517Z,82.6
2018-01-19T01:52:24.177Z,82.9
2018-01-19T01:53:24.835Z,82.4
2018-01-19T01:54:25.495Z,82.3
2018-01-19T01:55:26.154Z,82.2
2018-01-19T01:56:26.813Z,82.6
2018-01-19T01:57:27.471Z,82.1
2018-01-19T01:58:28.131Z,82.4
2018-01-19T01:59:28.790Z,82.4
2018-01-19T02:00:29.448Z,82.8
2018-01-19T02:01:30.107Z,82.9
2018-01-19T02:02:30.764Z,82.5
2018-01-19T02:03:31.423Z,82.2
2018-01-19T02:04:32.081Z,82.5
2018-01-19T02:05:32.740Z,82.3
2018-01-19T02:06:33.399Z,82.3
2018-01-19T02:07:34.058Z,82.0
2018-01-19T02:08:34.716Z,82.8
2018-01-19T02:09:35.376Z,82.5
2018-01-19T02:10:36.073Z,82.9
2018-01-19T02:11:36.731Z,83.0
2018-01-19T02:12:37.390Z,82.7
2018-01-19T02:13:38.049Z,82.8
2018-01-19T02:14:38.710Z,82.7
2018-01-19T02:15:39.367Z,82.8
2018-01-19T02:16:40.028Z,82.9
2018-01-19T02:17:40.686Z,82.9
2018-01-19T02:18:41.345Z,83.2
2018-01-19T02:19:42.005Z,83.5
2018-01-19T02:20:42.665Z,83.8
2018-01-19T02:21:43.323Z,83.8
2018-01-19T02:22:43.982Z,83.8
2018-01-19T02:23:44.680Z,84.2
2018-01-19T02:24:45.374Z,84.3
2018-01-19T02:25:46.028Z,84.8
2018-01-19T02:26:46.684Z,84.7
2018-01-19T02:27:47.342Z,84.6
2018-01-19T02:28:47.999Z,85.0
2018-01-19T02:29:48.656Z,84.8
2018-01-19T02:30:49.313Z,85.7
2018-01-19T02:31:49.971Z,85.5
2018-01-19T02:32:50.665Z,85.4
2018-01-19T02:33:51.324Z,86.2
2018-01-19T02:34:51.983Z,86.3
2018-01-19T02:35:52.641Z,86.1
2018-01-19T02:36:53.299Z,86.4
2018-01-19T02:37:53.991Z,85.9
2018-01-19T02:38:54.649Z,85.9
2018-01-19T02:39:55.306Z,86.4
2018-01-19T02:40:55.964Z,86.7
2018-01-19T02:41:56.623Z,86.5
2018-01-19T02:42:57.281Z,86.4
2018-01-19T02:43:57.939Z,86.8
2018-01-19T02:44:58.595Z,87.2
2018-01-19T02:45:59.253Z,87.1
2018-01-19T02:46:59.912Z,87.3
2018-01-19T02:48:00.570Z,87.3
2018-01-19T02:49:01.229Z,87.4
2018-01-19T02:50:01.887Z,87.4
2018-01-19T02:51:02.544Z,87.1
2018-01-19T02:52:03.202Z,87.1
2018-01-19T02:53:03.861Z,87.0
2018-01-19T02:54:04.519Z,86.8
2018-01-19T02:55:05.176Z,87.0
2018-01-19T02:56:05.869Z,87.2
2018-01-19T02:57:06.527Z,87.0
2018-01-19T02:58:07.218Z,86.9
2018-01-19T02:59:07.874Z,87.1
2018-01-19T03:00:08.531Z,87.5
2018-01-19T03:01:09.188Z,87.5
2018-01-19T03:02:09.846Z,87.3
2018-01-19T03:03:10.505Z,87.6
2018-01-19T03:04:11.162Z,88.2
2018-01-19T03:05:11.822Z,87.8
2018-01-19T03:06:12.479Z,87.9
2018-01-19T03:07:13.138Z,88.1
2018-01-19T03:08:13.845Z,88.4
2018-01-19T03:09:14.501Z,87.9
2018-01-19T03:10:15.159Z,88.0
2018-01-19T03:11:15.815Z,88.3
2018-01-19T03:12:16.472Z,88.3
2018-01-19T03:13:17.129Z,88.1
2018-01-19T03:14:17.784Z,88.5
2018-01-19T03:15:18.443Z,88.3
2018-01-19T03:16:19.099Z,88.6
2018-01-19T03:17:19.757Z,88.2
2018-01-19T03:18:20.415Z,88.2
2018-01-19T03:19:21.074Z,88.1
2018-01-19T03:20:21.732Z,88.3
2018-01-19T03:21:22.390Z,88.0
2018-01-19T03:22:23.047Z,88.2
2018-01-19T03:23:23.755Z,88.0
2018-01-19T03:24:24.411Z,88.1
2018-01-19T03:25:25.069Z,88.3
2018-01-19T03:26:25.726Z,88.2
2018-01-19T03:27:26.385Z,87.6
2018-01-19T03:28:27.077Z,88.2
2018-01-19T03:29:27.738Z,88.1
2018-01-19T03:30:28.426Z,88.4
2018-01-19T03:31:29.084Z,88.5
2018-01-19T03:32:29.741Z,88.5
2018-01-19T03:33:30.398Z,88.2
2018-01-19T03:34:31.058Z,88.3
2018-01-19T03:35:31.715Z,88.6
2018-01-19T03:36:32.372Z,88.6
2018-01-19T03:37:33.030Z,88.5
2018-01-19T03:38:33.687Z,88.2
2018-01-19T03:39:34.345Z,88.1
2018-01-19T03:40:35.005Z,88.3
2018-01-19T03:41:35.662Z,88.5
2018-01-19T03:42:36.320Z,88.4
2018-01-19T03:43:36.979Z,87.8
2018-01-19T03:44:37.638Z,88.2
2018-01-19T03:45:38.331Z,87.5
2018-01-19T03:46:38.989Z,87.9
2018-01-19T03:47:39.648Z,87.8
2018-01-19T03:48:40.307Z,87.8
2018-01-19T03:49:40.965Z,88.0
2018-01-19T03:50:41.624Z,88.3
2018-01-19T03:51:42.284Z,88.2
2018-01-19T03:52:42.943Z,88.2
2018-01-19T03:53:43.652Z,88.3
2018-01-19T03:54:44.310Z,87.8
2018-01-19T03:55:44.965Z,88.2
2018-01-19T03:56:45.623Z,87.9
2018-01-19T03:57:46.278Z,88.4
2018-01-19T03:58:46.937Z,88.3
2018-01-19T03:59:47.593Z,88.2
2018-01-19T04:00:48.251Z,88.3
2018-01-19T04:01:48.912Z,88.1
2018-01-19T04:02:49.566Z,87.9
2018-01-19T04:03:50.225Z,88.3
2018-01-19T04:04:50.882Z,88.1
2018-01-19T04:05:51.542Z,88.1
2018-01-19T04:06:52.198Z,88.1
2018-01-19T04:07:52.857Z,87.5
2018-01-19T04:08:53.515Z,87.5
2018-01-19T04:09:54.177Z,87.5
2018-01-19T04:10:54.836Z,87.8
2018-01-19T04:11:55.490Z,87.5
2018-01-19T04:12:56.186Z,87.8
2018-01-19T04:13:56.843Z,87.6
2018-01-19T04:14:57.503Z,87.5
2018-01-19T04:15:58.162Z,87.6
2018-01-19T04:16:58.821Z,87.5
2018-01-19T04:17:59.481Z,87.5
2018-01-19T04:19:00.140Z,87.6
2018-01-19T04:20:00.800Z,88.0
2018-01-19T04:21:01.494Z,87.9
2018-01-19T04:22:02.153Z,87.8
2018-01-19T04:23:02.843Z,87.6
2018-01-19T04:24:03.470Z,87.6
2018-01-19T04:25:04.128Z,87.4
2018-01-19T04:26:04.786Z,87.8
2018-01-19T04:27:05.444Z,87.5
2018-01-19T04:28:06.104Z,87.8
2018-01-19T04:29:06.763Z,87.9
2018-01-19T04:30:07.421Z,87.7
2018-01-19T04:31:08.079Z,87.9
2018-01-19T04:32:08.737Z,88.7
2018-01-19T04:33:09.396Z,88.3
2018-01-19T04:34:10.054Z,88.2
2018-01-19T04:35:10.711Z,88.1
2018-01-19T04:36:11.370Z,88.4
2018-01-19T04:37:12.026Z,88.2
2018-01-19T04:38:12.685Z,88.3
2018-01-19T04:39:13.344Z,88.4
2018-01-19T04:40:14.001Z,88.8
2018-01-19T04:41:14.658Z,88.8
2018-01-19T04:42:15.316Z,88.9
2018-01-19T04:43:15.975Z,88.3
2018-01-19T04:44:16.633Z,88.2
2018-01-19T04:45:17.291Z,88.1
2018-01-19T04:46:17.949Z,88.3
2018-01-19T04:47:18.608Z,88.3
2018-01-19T04:48:19.265Z,88.3
2018-01-19T04:49:19.924Z,88.3
2018-01-19T04:50:20.580Z,88.3
2018-01-19T04:51:21.238Z,88.3
2018-01-19T04:52:21.897Z,88.4
2018-01-19T04:53:22.554Z,88.2
2018-01-19T04:54:23.214Z,88.3
2018-01-19T04:55:23.870Z,88.3
2018-01-19T04:56:24.530Z,88.3
2018-01-19T04:57:25.186Z,88.4
2018-01-19T04:58:25.843Z,88.2
2018-01-19T04:59:26.552Z,88.3
2018-01-19T05:00:27.209Z,88.2
2018-01-19T05:01:27.867Z,88.4
2018-01-19T05:02:28.523Z,88.3
2018-01-19T05:03:29.181Z,88.3
2018-01-19T05:04:29.836Z,88.3
2018-01-19T05:05:30.494Z,88.7
2018-01-19T05:06:31.152Z,88.9
2018-01-19T05:07:31.810Z,88.4
2018-01-19T05:08:32.467Z,89.0
2018-01-19T05:09:33.125Z,88.2
2018-01-19T05:10:33.819Z,87.9
2018-01-19T05:11:34.478Z,88.4
2018-01-19T05:12:35.135Z,89.0
2018-01-19T05:13:35.800Z,88.7
2018-01-19T05:14:36.454Z,88.8
2018-01-19T05:15:37.112Z,88.6
2018-01-19T05:16:37.771Z,88.8
2018-01-19T05:17:38.430Z,88.5
2018-01-19T05:18:39.088Z,88.4
2018-01-19T05:19:39.746Z,88.2
2018-01-19T05:20:40.405Z,88.4
2018-01-19T05:21:41.090Z,88.7
2018-01-19T05:22:41.719Z,88.2
2018-01-19T05:23:42.377Z,88.1
2018-01-19T05:24:43.035Z,88.1
2018-01-19T05:25:43.695Z,87.9
2018-01-19T05:26:44.387Z,87.7
2018-01-19T05:27:45.046Z,88.0
2018-01-19T05:28:45.704Z,88.7
2018-01-19T05:29:46.362Z,88.1
2018-01-19T05:30:47.038Z,88.5
2018-01-19T05:31:47.680Z,88.1
2018-01-19T05:32:48.338Z,88.1
2018-01-19T05:33:49.034Z,88.4
2018-01-19T05:34:49.694Z,88.2
2018-01-19T05:35:50.354Z,88.2
2018-01-19T05:36:51.012Z,88.8
2018-01-19T05:37:51.670Z,88.8
2018-01-19T05:38:52.328Z,88.8
2018-01-19T05:39:52.987Z,88.8
2018-01-19T05:40:53.646Z,89.3
2018-01-19T05:41:54.305Z,89.3
2018-01-19T05:42:54.964Z,89.3
2018-01-19T05:43:55.621Z,89.3
2018-01-19T05:44:56.280Z,89.4
2018-01-19T05:45:56.937Z,89.8
2018-01-19T05:46:57.599Z,90.2
2018-01-19T05:47:58.252Z,90.1
2018-01-19T05:48:58.911Z,90.2
2018-01-19T05:49:59.569Z,90.7
2018-01-19T05:51:00.231Z,90.4
2018-01-19T05:52:00.886Z,90.0
2018-01-19T05:53:01.580Z,89.7
2018-01-19T05:54:02.239Z,89.4
2018-01-19T05:55:02.948Z,89.4
2018-01-19T05:56:03.605Z,89.3
2018-01-19T05:57:04.262Z,89.5
2018-01-19T05:58:04.921Z,89.0
2018-01-19T05:59:05.576Z,89.1
2018-01-19T06:00:06.233Z,89.0
2018-01-19T06:01:06.892Z,89.3
2018-01-19T06:02:07.550Z,89.5
2018-01-19T06:03:08.215Z,88.8
2018-01-19T06:04:08.867Z,89.1
2018-01-19T06:05:09.524Z,89.0
2018-01-19T06:06:10.182Z,89.0
2018-01-19T06:07:10.840Z,88.8
2018-01-19T06:08:11.500Z,88.5
2018-01-19T06:09:12.157Z,88.4
2018-01-19T06:10:12.817Z,87.8
2018-01-19T06:11:13.477Z,87.8
2018-01-19T06:12:14.153Z,87.9
2018-01-19T06:13:14.792Z,87.8
2018-01-19T06:14:15.449Z,87.9
2018-01-19T06:15:16.106Z,87.9
2018-01-19T06:16:16.768Z,88.2
2018-01-19T06:17:17.423Z,87.9
2018-01-19T06:18:18.081Z,88.0
2018-01-19T06:19:18.740Z,88.3
2018-01-19T06:20:19.400Z,88.3
2018-01-19T06:21:20.056Z,87.8
2018-01-19T06:22:20.714Z,88.2
2018-01-19T06:23:21.372Z,88.0
2018-01-19T06:24:22.030Z,88.3
2018-01-19T06:25:22.689Z,88.3
2018-01-19T06:26:23.346Z,88.4
2018-01-19T06:27:24.005Z,88.5
2018-01-19T06:28:24.663Z,88.2
2018-01-19T06:29:25.322Z,88.6
2018-01-19T06:30:26.016Z,88.0
2018-01-19T06:31:26.673Z,87.9
2018-01-19T06:32:27.329Z,87.5
2018-01-19T06:33:27.985Z,87.6
2018-01-19T06:34:28.644Z,87.6
2018-01-19T06:35:29.350Z,87.6
2018-01-19T06:36:30.010Z,87.5
2018-01-19T06:37:30.668Z,87.6
2018-01-19T06:38:31.326Z,87.5
2018-01-19T06:39:32.021Z,87.5
2018-01-19T06:40:32.728Z,87.6
2018-01-19T06:41:33.387Z,87.3
2018-01-19T06:42:34.046Z,86.9
2018-01-19T06:43:34.706Z,87.0
2018-01-19T06:44:35.368Z,86.7
2018-01-19T06:45:36.024Z,86.7
2018-01-19T06:46:36.682Z,86.6
2018-01-19T06:47:37.341Z,86.7
2018-01-19T06:48:37.999Z,87.3
2018-01-19T06:49:38.657Z,86.9
2018-01-19T06:50:39.316Z,86.8
2018-01-19T06:51:40.008Z,87.1
2018-01-19T06:52:40.633Z,87.2
2018-01-19T06:53:41.294Z,87.3
2018-01-19T06:54:41.954Z,87.3
2018-01-19T06:55:42.661Z,86.7
2018-01-19T06:56:43.315Z,86.8
2018-01-19T06:57:43.972Z,86.6
2018-01-19T06:58:44.629Z,87.0
2018-01-19T06:59:45.287Z,86.7
2018-01-19T07:00:45.982Z,87.0
2018-01-19T07:01:46.646Z,86.7
2018-01-19T07:02:47.299Z,87.0
2018-01-19T07:03:47.958Z,87.8
2018-01-19T07:04:48.619Z,87.5
2018-01-19T07:05:49.313Z,87.5
2018-01-19T07:06:49.976Z,87.4
2018-01-19T07:07:50.667Z,87.6
2018-01-19T07:08:51.324Z,87.7
2018-01-19T07:09:51.983Z,88.0
2018-01-19T07:10:52.690Z,88.6
2018-01-19T07:11:53.350Z,88.8
2018-01-19T07:12:54.010Z,89.6
2018-01-19T07:13:54.705Z,89.4
2018-01-19T07:14:55.363Z,90.0
2018-01-19T07:15:56.019Z,90.1
2018-01-19T07:16:56.677Z,90.2
2018-01-19T07:17:57.336Z,91.2
2018-01-19T07:18:57.995Z,91.9
2018-01-19T07:19:58.688Z,92.8
2018-01-19T07:20:59.348Z,94.5
2018-01-19T07:22:00.021Z,95.3
2018-01-19T07:23:00.700Z,96.5
2018-01-19T07:24:01.358Z,97.7
2018-01-19T07:25:02.018Z,98.1
2018-01-19T07:26:02.677Z,99.1
2018-01-19T07:27:03.336Z,99.1
2018-01-19T07:28:03.994Z,99.2
2018-01-19T07:29:04.654Z,99.6
2018-01-19T07:30:05.313Z,100.0
2018-01-19T07:31:05.971Z,100.0
2018-01-19T07:32:06.629Z,100.0
2018-01-19T07:33:07.288Z,100.0
2018-01-19T07:34:07.948Z,100.0
2018-01-19T07:35:08.607Z,100.0
2018-01-19T07:36:09.266Z,100.0
2018-01-19T07:37:09.927Z,100.0
2018-01-19T07:38:10.587Z,100.0
2018-01-19T07:39:11.246Z,100.0
2018-01-19T07:40:11.905Z,100.0
2018-01-19T07:41:12.565Z,100.0
2018-01-19T07:42:13.226Z,100.0
2018-01-19T07:43:13.891Z,100.0
2018-01-19T07:44:14.584Z,100.0
2018-01-19T07:45:15.247Z,100.0
2018-01-19T07:46:15.908Z,100.0
2018-01-19T07:47:16.570Z,100.0
2018-01-19T07:48:17.230Z,100.0
2018-01-19T07:49:17.890Z,100.0
2018-01-19T07:50:18.549Z,100.0
2018-01-19T07:51:19.208Z,100.0
2018-01-19T07:52:19.870Z,100.0
2018-01-19T07:53:20.532Z,100.0
2018-01-19T07:54:21.193Z,100.0
2018-01-19T07:55:21.854Z,100.0
2018-01-19T07:56:22.513Z,100.0
2018-01-19T07:57:23.208Z,100.0
2018-01-19T07:58:23.868Z,100.0
2018-01-19T07:59:24.529Z,100.0
2018-01-19T08:00:25.224Z,100.0
2018-01-19T08:01:25.895Z,100.0
2018-01-19T08:02:26.578Z,100.0
2018-01-19T08:03:27.238Z,100.0
2018-01-19T08:04:27.898Z,100.0
2018-01-19T08:05:28.558Z,100.0
2018-01-19T08:06:29.218Z,100.0
2018-01-19T08:07:29.881Z,100.0
2018-01-19T08:08:30.536Z,100.0
2018-01-19T08:09:31.197Z,100.0
2018-01-19T08:10:31.858Z,100.0
2018-01-19T08:11:32.520Z,100.0
2018-01-19T08:12:33.182Z,100.0
2018-01-19T08:13:33.845Z,100.0
2018-01-19T08:14:34.506Z,100.0
2018-01-19T08:15:35.167Z,100.0
2018-01-19T08:16:35.829Z,100.0
2018-01-19T08:17:36.491Z,100.0
2018-01-19T08:18:37.152Z,100.0
2018-01-19T08:19:37.814Z,100.0
2018-01-19T08:20:38.473Z,100.0
2018-01-19T08:21:39.185Z,100.0
2018-01-19T08:22:39.846Z,100.0
2018-01-19T08:23:40.509Z,100.0
2018-01-19T08:24:41.169Z,100.0
2018-01-19T08:25:41.831Z,100.0
2018-01-19T08:26:42.492Z,100.0
2018-01-19T08:27:43.154Z,100.0
2018-01-19T08:28:43.815Z,100.0
2018-01-19T08:29:44.477Z,100.0
2018-01-19T08:30:45.138Z,100.0
2018-01-19T08:31:45.799Z,100.0
2018-01-19T08:32:46.460Z,100.0
2018-01-19T08:33:47.158Z,100.0
2018-01-19T08:34:47.819Z,100.0
2018-01-19T08:35:48.481Z,100.0
2018-01-19T08:36:49.149Z,100.0
2018-01-19T08:37:49.806Z,100.0
2018-01-19T08:38:50.467Z,100.0
2018-01-19T08:39:51.128Z,100.0
2018-01-19T08:40:51.791Z,100.0
2018-01-19T08:41:52.451Z,100.0
2018-01-19T08:42:53.114Z,100.0
2018-01-19T08:43:53.774Z,100.0
2018-01-19T08:44:54.435Z,100.0
2018-01-19T08:45:55.097Z,100.0
2018-01-19T08:46:55.757Z,100.0
2018-01-19T08:47:56.420Z,100.0
2018-01-19T08:48:57.087Z,99.9
2018-01-19T08:49:57.748Z,100.0
2018-01-19T08:50:58.407Z,100.0
2018-01-19T08:51:59.072Z,100.0
2018-01-19T08:52:59.768Z,100.0
2018-01-19T08:54:00.432Z,100.0
2018-01-19T08:55:01.094Z,100.0
2018-01-19T08:56:01.756Z,100.0
2018-01-19T08:57:02.419Z,100.0
2018-01-19T08:58:03.083Z,100.0
2018-01-19T08:59:03.747Z,100.0
2018-01-19T09:00:04.411Z,100.0
2018-01-19T09:01:05.075Z,100.0
2018-01-19T09:02:05.776Z,100.0
2018-01-19T09:03:06.401Z,100.0
2018-01-19T09:04:07.063Z,100.0
2018-01-19T09:05:07.724Z,100.0
2018-01-19T09:06:08.385Z,99.2
2018-01-19T09:07:09.083Z,99.4
2018-01-19T09:08:09.744Z,99.5
2018-01-19T09:09:10.406Z,100.0
2018-01-19T09:10:11.069Z,99.8
2018-01-19T09:11:11.733Z,100.0
2018-01-19T09:12:12.397Z,100.0
2018-01-19T09:13:13.058Z,98.9
2018-01-19T09:14:13.720Z,98.5
2018-01-19T09:15:14.382Z,98.1
2018-01-19T09:16:15.046Z,98.3
2018-01-19T09:17:15.757Z,98.6
2018-01-19T09:18:16.420Z,98.2
2018-01-19T09:19:17.083Z,97.5
2018-01-19T09:20:17.748Z,97.8
2018-01-19T09:21:18.428Z,98.8
2018-01-19T09:22:19.071Z,97.9
2018-01-19T09:23:19.733Z,98.2
2018-01-19T09:24:20.397Z,97.4
2018-01-19T09:25:21.060Z,97.4
2018-01-19T09:26:21.720Z,98.1
2018-01-19T09:27:22.381Z,97.4
2018-01-19T09:28:23.042Z,96.7
2018-01-19T09:29:23.703Z,96.8
2018-01-19T09:30:24.364Z,96.6
2018-01-19T09:31:25.062Z,95.7
2018-01-19T09:32:25.723Z,97.5
2018-01-19T09:33:26.387Z,98.1
2018-01-19T09:34:27.051Z,97.7
2018-01-19T09:35:27.714Z,95.9
2018-01-19T09:36:28.377Z,97.0
2018-01-19T09:37:29.038Z,96.9
2018-01-19T09:38:29.701Z,97.2
2018-01-19T09:39:30.363Z,96.0
2018-01-19T09:40:31.025Z,95.2
2018-01-19T09:41:31.688Z,95.0
2018-01-19T09:42:32.350Z,96.2
2018-01-19T09:43:33.012Z,96.7
2018-01-19T09:44:33.674Z,96.8
2018-01-19T09:45:34.336Z,96.9
2018-01-19T09:46:35.000Z,96.7
2018-01-19T09:47:35.666Z,95.9
2018-01-19T09:48:36.327Z,95.8
2018-01-19T09:49:36.989Z,95.2
2018-01-19T09:50:37.650Z,94.9
2018-01-19T09:51:38.314Z,95.2
2018-01-19T09:52:38.978Z,95.0
2018-01-19T09:53:39.641Z,94.6
2018-01-19T09:54:40.306Z,94.5
2018-01-19T09:55:40.968Z,94.1
2018-01-19T09:56:41.633Z,94.9
2018-01-19T09:57:42.297Z,94.9
2018-01-19T09:58:42.960Z,95.3
2018-01-19T09:59:43.623Z,94.8
2018-01-19T10:00:44.285Z,95.0
2018-01-19T10:01:44.949Z,95.0
2018-01-19T10:02:45.612Z,94.8
2018-01-19T10:03:46.275Z,94.8
2018-01-19T10:04:46.936Z,96.0
2018-01-19T10:05:47.598Z,95.3
2018-01-19T10:06:48.310Z,95.0
2018-01-19T10:07:48.925Z,95.4
2018-01-19T10:08:49.587Z,96.1
2018-01-19T10:09:50.254Z,95.8
2018-01-19T10:10:50.915Z,96.0
2018-01-19T10:11:51.578Z,96.1
2018-01-19T10:12:52.239Z,96.1
2018-01-19T10:13:52.902Z,96.3
2018-01-19T10:14:53.566Z,95.8
2018-01-19T10:15:54.229Z,96.4
2018-01-19T10:16:54.890Z,96.6
2018-01-19T10:17:55.554Z,96.1
2018-01-19T10:18:56.252Z,95.2
2018-01-19T10:19:56.915Z,95.7
2018-01-19T10:20:57.576Z,95.6
2018-01-19T10:21:58.240Z,96.8
2018-01-19T10:22:58.905Z,96.8
2018-01-19T10:23:59.567Z,96.5
2018-01-19T10:25:00.230Z,96.6
2018-01-19T10:26:00.892Z,97.4
2018-01-19T10:27:01.555Z,95.8
2018-01-19T10:28:02.303Z,95.9
2018-01-19T10:29:02.966Z,96.6
2018-01-19T10:30:03.630Z,96.9
2018-01-19T10:31:04.291Z,96.6
2018-01-19T10:32:04.953Z,97.4
2018-01-19T10:33:05.619Z,96.2
2018-01-19T10:34:06.281Z,96.2
2018-01-19T10:35:06.944Z,95.9
2018-01-19T10:36:07.604Z,97.0
2018-01-19T10:37:08.266Z,96.7
2018-01-19T10:38:08.930Z,96.1
2018-01-19T10:39:09.593Z,96.4
2018-01-19T10:40:10.258Z,95.4
2018-01-19T10:41:10.923Z,96.1
2018-01-19T10:42:11.580Z,95.1
2018-01-19T10:43:12.242Z,95.2
2018-01-19T10:44:12.904Z,95.1
2018-01-19T10:45:13.569Z,95.2
2018-01-19T10:46:14.232Z,95.3
2018-01-19T10:47:14.895Z,95.9
2018-01-19T10:48:15.557Z,96.0
2018-01-19T10:49:16.220Z,95.0
2018-01-19T10:50:16.882Z,95.8
2018-01-19T10:51:17.545Z,95.8
2018-01-19T10:52:18.209Z,95.3
2018-01-19T10:53:18.873Z,95.2
2018-01-19T10:54:19.533Z,96.0
2018-01-19T10:55:20.195Z,95.8
2018-01-19T10:56:20.857Z,96.4
2018-01-19T10:57:21.521Z,95.7
2018-01-19T10:58:22.185Z,96.2
2018-01-19T10:59:22.847Z,96.3
2018-01-19T11:00:23.509Z,96.7
2018-01-19T11:01:24.174Z,96.7
2018-01-19T11:02:24.831Z,97.6
2018-01-19T11:03:25.545Z,97.7
2018-01-19T11:04:26.206Z,97.9
2018-01-19T11:05:26.870Z,98.0
2018-01-19T11:06:27.532Z,97.4
2018-01-19T11:07:28.197Z,98.1
2018-01-19T11:08:28.861Z,97.5
2018-01-19T11:09:29.563Z,97.5
2018-01-19T11:10:30.185Z,98.2
2018-01-19T11:11:30.846Z,98.1
2018-01-19T11:12:31.509Z,97.3
2018-01-19T11:13:32.208Z,96.6
2018-01-19T11:14:32.906Z,97.6
2018-01-19T11:15:33.568Z,98.3
2018-01-19T11:16:34.230Z,97.9
2018-01-19T11:17:34.893Z,98.8
2018-01-19T11:18:35.560Z,98.0
2018-01-19T11:19:36.221Z,99.9
2018-01-19T11:20:36.884Z,99.8
2018-01-19T11:21:37.549Z,99.0
2018-01-19T11:22:38.215Z,98.1
2018-01-19T11:23:38.877Z,98.0
2018-01-19T11:24:39.540Z,98.2
2018-01-19T11:25:40.205Z,98.0
2018-01-19T11:26:40.870Z,98.2
2018-01-19T11:27:41.532Z,98.6
2018-01-19T11:28:42.195Z,97.5
2018-01-19T11:29:42.894Z,96.4
2018-01-19T11:30:43.559Z,96.5
2018-01-19T11:31:44.223Z,96.0
2018-01-19T11:32:44.888Z,95.5
2018-01-19T11:33:45.553Z,96.1
2018-01-19T11:34:46.222Z,95.1
2018-01-19T11:35:46.881Z,96.4
2018-01-19T11:36:47.546Z,96.6
2018-01-19T11:37:48.209Z,95.8
2018-01-19T11:38:48.873Z,96.1
2018-01-19T11:39:49.536Z,95.0
2018-01-19T11:40:50.202Z,95.0
2018-01-19T11:41:50.870Z,95.4
2018-01-19T11:42:51.531Z,95.1
2018-01-19T11:43:52.194Z,96.7
2018-01-19T11:44:52.862Z,96.5
2018-01-19T11:45:53.561Z,96.0
2018-01-19T11:46:54.225Z,96.4
2018-01-19T11:47:54.888Z,97.5
2018-01-19T11:48:55.554Z,97.0
2018-01-19T11:49:56.215Z,96.2
2018-01-19T11:50:56.881Z,96.2
2018-01-19T11:51:57.549Z,95.1
2018-01-19T11:52:58.288Z,95.3
2018-01-19T11:53:58.933Z,96.2
2018-01-19T11:54:59.596Z,94.8
2018-01-19T11:56:00.261Z,95.0
2018-01-19T11:57:00.927Z,94.5
2018-01-19T11:58:01.591Z,94.6
2018-01-19T11:59:02.254Z,94.6
2018-01-19T12:00:02.919Z,94.2
2018-01-19T12:01:03.582Z,94.1
2018-01-19T12:02:04.249Z,94.2
2018-01-19T12:03:04.908Z,94.7
2018-01-19T12:04:05.571Z,95.6
2018-01-19T12:05:06.233Z,94.2
2018-01-19T12:06:06.898Z,94.1
2018-01-19T12:07:07.562Z,94.2
2018-01-19T12:08:08.225Z,94.4
2018-01-19T12:09:08.888Z,94.8
2018-01-19T12:10:09.550Z,95.6
2018-01-19T12:11:10.213Z,95.0
2018-01-19T12:12:10.875Z,94.9
2018-01-19T12:13:11.540Z,95.0
2018-01-19T12:14:12.203Z,95.1
2018-01-19T12:15:12.881Z,94.9
2018-01-19T12:16:13.527Z,96.2
2018-01-19T12:17:14.226Z,95.6
2018-01-19T12:18:14.889Z,95.1
2018-01-19T12:19:15.589Z,95.2
2018-01-19T12:20:16.252Z,95.1
2018-01-19T12:21:16.917Z,95.0
2018-01-19T12:22:17.583Z,94.6
2018-01-19T12:23:18.245Z,95.3
2018-01-19T12:24:18.958Z,94.3
2018-01-19T12:25:19.623Z,94.2
2018-01-19T12:26:20.286Z,93.8
2018-01-19T12:27:20.949Z,93.2
2018-01-19T12:28:21.613Z,92.9
2018-01-19T12:29:22.279Z,93.2
2018-01-19T12:30:22.945Z,92.9
2018-01-19T12:31:23.609Z,93.1
2018-01-19T12:32:24.277Z,92.6
2018-01-19T12:33:24.938Z,92.5
2018-01-19T12:34:25.605Z,92.7
2018-01-19T12:35:26.266Z,91.9
2018-01-19T12:36:26.930Z,91.8
2018-01-19T12:37:27.597Z,91.7
2018-01-19T12:38:28.299Z,91.5
2018-01-19T12:39:28.964Z,90.9
2018-01-19T12:40:29.628Z,90.7
2018-01-19T12:41:30.327Z,91.4
2018-01-19T12:42:30.991Z,91.2
2018-01-19T12:43:31.654Z,91.2
2018-01-19T12:44:32.319Z,91.0
2018-01-19T12:45:32.985Z,90.4
2018-01-19T12:46:33.648Z,91.3
2018-01-19T12:47:34.320Z,91.9
2018-01-19T12:48:34.974Z,91.5
2018-01-19T12:49:35.639Z,90.4
2018-01-19T12:50:36.304Z,90.8
2018-01-19T12:51:37.006Z,90.0
2018-01-19T12:52:37.669Z,90.8
2018-01-19T12:53:38.333Z,90.4
2018-01-19T12:54:39.023Z,90.8
2018-01-19T12:55:39.663Z,91.1
2018-01-19T12:56:40.367Z,90.2
2018-01-19T12:57:41.030Z,90.5
2018-01-19T12:58:41.694Z,91.2
2018-01-19T12:59:42.391Z,90.7
2018-01-19T13:00:43.054Z,91.3
2018-01-19T13:01:43.715Z,90.9
2018-01-19T13:02:44.381Z,90.9
2018-01-19T13:03:45.042Z,90.4
2018-01-19T13:04:45.705Z,90.5
2018-01-19T13:05:46.372Z,90.5
2018-01-19T13:06:47.036Z,90.8
2018-01-19T13:07:47.700Z,90.7
2018-01-19T13:08:48.364Z,90.3
2018-01-19T13:09:49.037Z,91.1
2018-01-19T13:10:49.696Z,91.0
2018-01-19T13:11:50.359Z,90.9
2018-01-19T13:12:51.024Z,91.2
2018-01-19T13:13:51.721Z,91.5
2018-01-19T13:14:52.384Z,91.4
2018-01-19T13:15:53.042Z,91.0
2018-01-19T13:16:53.705Z,90.4
2018-01-19T13:17:54.371Z,91.2
2018-01-19T13:18:55.063Z,90.6
2018-01-19T13:19:55.737Z,91.3
2018-01-19T13:20:56.400Z,90.7
2018-01-19T13:21:57.077Z,91.2
2018-01-19T13:22:57.726Z,92.1
2018-01-19T13:23:58.390Z,91.6
2018-01-19T13:24:59.054Z,91.9